createdAt,value
2023-03-16T00:02:56.240Z,15.70
2023-03-16T00:05:58.651Z,15.63
2023-03-16T00:09:00.985Z,15.64
2023-03-16T00:12:03.792Z,15.64
2023-03-16T00:15:06.870Z,15.51
2023-03-16T00:18:09.274Z,15.59
2023-03-16T00:21:14.099Z,15.60
2023-03-16T00:24:18.758Z,15.51
2023-03-16T00:27:22.977Z,15.54
2023-03-16T00:30:27.480Z,15.52
2023-03-16T00:33:30.159Z,15.43
2023-03-16T00:36:33.984Z,15.50
2023-03-16T00:39:36.424Z,15.41
2023-03-16T00:42:38.800Z,15.30
2023-03-16T00:45:44.792Z,15.39
2023-03-16T00:48:47.667Z,15.46
2023-03-16T00:51:50.093Z,15.28
2023-03-16T00:54:53.180Z,15.33
2023-03-16T00:57:55.582Z,15.29
2023-03-16T01:00:59.607Z,15.23
2023-03-16T01:04:03.656Z,15.34
2023-03-16T01:07:12.349Z,15.29
2023-03-16T01:10:14.701Z,15.33
2023-03-16T01:13:17.053Z,15.25
2023-03-16T01:16:23.239Z,15.25
2023-03-16T01:19:25.757Z,15.28
2023-03-16T01:22:28.846Z,15.26
2023-03-16T01:25:32.520Z,15.24
2023-03-16T01:28:35.057Z,15.16
2023-03-16T01:31:37.461Z,15.22
2023-03-16T01:34:41.567Z,15.20
2023-03-16T01:37:45.156Z,15.18
2023-03-16T01:40:54.792Z,15.14
2023-03-16T01:43:58.621Z,15.15
2023-03-16T01:47:01.804Z,15.08
2023-03-16T01:50:05.336Z,15.07
2023-03-16T01:53:10.598Z,15.09
2023-03-16T01:56:15.916Z,15.00
2023-03-16T01:59:22.354Z,15.06
2023-03-16T02:02:30.468Z,15.09
2023-03-16T02:05:38.357Z,15.05
2023-03-16T02:08:43.383Z,15.05
2023-03-16T02:11:46.492Z,15.03
2023-03-16T02:14:51.329Z,14.96
2023-03-16T02:17:53.933Z,15.00
2023-03-16T02:21:33.211Z,14.99
2023-03-16T02:24:37.493Z,14.98
2023-03-16T02:27:53.562Z,14.97
2023-03-16T02:30:56.019Z,14.90
2023-03-16T02:33:58.712Z,14.90
2023-03-16T02:37:01.141Z,14.83
2023-03-16T02:40:21.064Z,14.86
2023-03-16T02:43:28.814Z,14.85
2023-03-16T02:46:46.635Z,14.86
2023-03-16T02:49:50.148Z,14.86
2023-03-16T02:52:52.641Z,14.78
2023-03-16T02:55:54.994Z,14.78
2023-03-16T02:58:57.956Z,14.72
2023-03-16T03:02:01.559Z,14.75
2023-03-16T03:05:04.054Z,14.71
2023-03-16T03:08:06.918Z,14.80
2023-03-16T03:11:09.632Z,14.78
2023-03-16T03:14:12.561Z,14.77
2023-03-16T03:17:16.299Z,14.67
2023-03-16T03:20:19.823Z,14.68
2023-03-16T03:23:22.574Z,14.68
2023-03-16T03:26:25.004Z,14.71
2023-03-16T03:29:34.778Z,14.65
2023-03-16T03:32:37.341Z,14.64
2023-03-16T03:35:39.764Z,14.69
2023-03-16T03:38:42.233Z,14.61
2023-03-16T03:41:45.532Z,14.63
2023-03-16T03:44:48.138Z,14.65
2023-03-16T03:47:51.018Z,14.62
2023-03-16T03:50:56.073Z,14.63
2023-03-16T03:54:18.725Z,14.54
2023-03-16T03:57:28.578Z,14.60
2023-03-16T04:00:31.246Z,14.60
2023-03-16T04:03:33.856Z,14.58
2023-03-16T04:06:36.488Z,14.54
2023-03-16T04:09:39.013Z,14.53
2023-03-16T04:12:43.195Z,14.79
2023-03-16T04:15:47.950Z,14.98
2023-03-16T04:18:57.243Z,15.22
2023-03-16T04:21:59.588Z,15.60
2023-03-16T04:25:04.037Z,15.82
2023-03-16T04:28:07.714Z,16.25
2023-03-16T04:31:13.293Z,16.55
2023-03-16T04:34:19.686Z,16.86
2023-03-16T04:37:22.445Z,17.15
2023-03-16T04:40:26.389Z,17.46
2023-03-16T04:43:37.641Z,17.75
2023-03-16T04:46:46.327Z,18.08
2023-03-16T04:49:49.447Z,18.35
2023-03-16T04:52:52.450Z,18.52
2023-03-16T04:55:55.665Z,18.76
2023-03-16T04:58:58.325Z,19.03
2023-03-16T05:02:04.535Z,19.18
2023-03-16T05:05:08.067Z,19.30
2023-03-16T05:08:12.302Z,19.52
2023-03-16T05:11:16.774Z,19.66
2023-03-16T05:14:29.130Z,19.68
2023-03-16T05:17:47.149Z,19.66
2023-03-16T05:20:53.766Z,19.38
2023-03-16T05:23:56.852Z,19.10
2023-03-16T05:26:59.295Z,19.12
2023-03-16T05:30:01.860Z,19.58
2023-03-16T05:33:07.409Z,19.38
2023-03-16T05:36:10.818Z,17.85
2023-03-16T05:39:15.766Z,16.65
2023-03-16T05:42:22.396Z,16.46
2023-03-16T05:45:30.515Z,16.47
2023-03-16T05:48:44.841Z,16.65
2023-03-16T05:51:50.726Z,16.79
2023-03-16T05:54:53.197Z,16.89
2023-03-16T05:57:55.637Z,16.82
2023-03-16T06:01:01.864Z,17.03
2023-03-16T06:04:07.466Z,17.03
2023-03-16T06:07:13.542Z,17.10
2023-03-16T06:10:16.445Z,17.25
2023-03-16T06:13:19.074Z,17.38
2023-03-16T06:16:21.799Z,17.46
2023-03-16T06:19:24.379Z,17.65
2023-03-16T06:22:32.575Z,17.89
2023-03-16T06:25:35.297Z,17.98
2023-03-16T06:28:39.786Z,17.97
2023-03-16T06:31:42.532Z,18.13
2023-03-16T06:34:46.008Z,18.23
2023-03-16T06:37:48.521Z,18.31
2023-03-16T06:41:12.969Z,18.32
2023-03-16T06:44:15.509Z,18.29
2023-03-16T06:47:29.115Z,18.36
2023-03-16T06:50:31.678Z,18.52
2023-03-16T06:53:34.624Z,18.61
2023-03-16T06:56:37.359Z,18.86
2023-03-16T06:59:40.302Z,18.87
2023-03-16T07:02:44.121Z,19.00
2023-03-16T07:05:49.042Z,19.23
2023-03-16T07:08:53.749Z,19.35
2023-03-16T07:11:58.341Z,19.41
2023-03-16T07:15:01.713Z,19.53
2023-03-16T07:18:06.305Z,19.53
2023-03-16T07:21:09.469Z,19.42
2023-03-16T07:24:13.167Z,19.44
2023-03-16T07:27:17.029Z,19.45
